Time;durP1;ratioP1;P1;durP2;ratioP2;P2;SDS_P1;SDS_P2;PMS_P1;PMS_P2;Temp;Humidity;BMP_temperature;BMP_pressure;BME280_temperature;BME280_humidity;BME280_pressure;Samples;Min_cycle;Max_cycle;Signal;HPM_P1;HPM_P2
2022/11/30 00:01:14;;;;;;;52.38;21.02;;;4.60;97.30;;;;;;4975870;28;20486;-81
2022/11/30 00:03:40;;;;;;;87.47;25.55;;;4.50;97.30;;;;;;4992160;28;20042;-82
2022/11/30 00:06:08;;;;;;;84.57;25.45;;;4.60;97.40;;;;;;4975858;28;20038;-81
2022/11/30 00:08:34;;;;;;;113.65;25.48;;;4.60;97.40;;;;;;4992046;28;20042;-82
2022/11/30 00:11:06;;;;;;;103.22;26.05;;;4.60;97.50;;;;;;4991955;28;20050;-78
2022/11/30 00:13:31;;;;;;;77.07;23.67;;;4.60;97.40;;;;;;4992235;28;20054;-79
2022/11/30 00:16:00;;;;;;;44.38;20.02;;;4.60;97.50;;;;;;4992207;28;20506;-79
2022/11/30 00:18:26;;;;;;;59.63;23.58;;;4.60;97.60;;;;;;4975854;28;20045;-78
2022/11/30 00:20:51;;;;;;;45.53;23.15;;;4.60;97.60;;;;;;4991927;28;20035;-78
2022/11/30 00:23:17;;;;;;;83.03;28.05;;;4.60;97.60;;;;;;4975911;28;20085;-79
2022/11/30 00:25:42;;;;;;;49.90;24.15;;;4.70;97.60;;;;;;4991884;28;20039;-78
2022/11/30 00:28:08;;;;;;;31.90;21.25;;;4.70;97.70;;;;;;4959721;28;20505;-79
2022/11/30 00:30:34;;;;;;;32.22;20.55;;;4.70;97.60;;;;;;4975743;28;20458;-79
2022/11/30 00:33:00;;;;;;;39.42;23.83;;;4.70;97.70;;;;;;4975691;28;20039;-80
2022/11/30 00:35:25;;;;;;;34.35;22.90;;;4.80;97.70;;;;;;4975799;28;20094;-78
2022/11/30 00:37:51;;;;;;;32.65;21.20;;;4.80;97.70;;;;;;4975638;28;20042;-79
2022/11/30 00:40:17;;;;;;;32.78;22.40;;;4.80;97.80;;;;;;4959622;28;20042;-80
2022/11/30 00:42:42;;;;;;;33.17;21.67;;;4.80;97.80;;;;;;4975579;28;20042;-80
2022/11/30 00:45:09;;;;;;;33.28;21.73;;;4.90;97.80;;;;;;4978079;28;20038;-79
2022/11/30 00:47:35;;;;;;;41.00;23.42;;;4.90;97.90;;;;;;4995217;28;20050;-80
2022/11/30 00:50:01;;;;;;;32.75;21.98;;;5.00;97.90;;;;;;4979207;28;20069;-80
2022/11/30 00:52:29;;;;;;;36.45;23.48;;;5.00;97.90;;;;;;4995158;28;20035;-78
2022/11/30 00:54:55;;;;;;;41.20;24.30;;;5.10;97.90;;;;;;4978857;28;20089;-80
2022/11/30 00:57:20;;;;;;;40.13;24.30;;;5.10;97.90;;;;;;4978788;28;20088;-79
2022/11/30 00:59:46;;;;;;;45.97;25.70;;;5.10;97.90;;;;;;4994969;28;20054;-80
2022/11/30 01:02:12;;;;;;;31.60;21.67;;;5.10;97.90;;;;;;4994949;28;20034;-80
2022/11/30 01:04:37;;;;;;;41.67;25.23;;;5.10;97.90;;;;;;4994774;28;20096;-79
2022/11/30 01:07:03;;;;;;;37.55;23.33;;;5.20;97.90;;;;;;4962673;28;20030;-79
2022/11/30 01:09:29;;;;;;;41.30;25.55;;;5.20;98.00;;;;;;4978820;28;20124;-80
2022/11/30 01:11:54;;;;;;;45.28;26.30;;;5.20;98.00;;;;;;4962370;28;20054;-80
2022/11/30 01:14:20;;;;;;;42.10;25.13;;;5.30;98.00;;;;;;4962421;28;20145;-78
2022/11/30 01:16:46;;;;;;;42.08;26.55;;;5.30;98.00;;;;;;4978490;28;20038;-79
2022/11/30 01:19:11;;;;;;;34.08;21.00;;;5.30;98.00;;;;;;4978414;28;20073;-80
2022/11/30 01:21:37;;;;;;;36.70;21.23;;;5.30;98.00;;;;;;4978675;28;20100;-80
2022/11/30 01:24:03;;;;;;;28.35;18.90;;;5.40;98.00;;;;;;4978079;28;20508;-79
2022/11/30 01:26:29;;;;;;;21.52;15.75;;;5.30;97.90;;;;;;4962252;28;20034;-79
2022/11/30 01:28:55;;;;;;;24.83;17.20;;;5.30;97.90;;;;;;4978261;28;20074;-80
2022/11/30 01:31:22;;;;;;;28.02;18.27;;;5.30;97.90;;;;;;4978345;28;20039;-81
2022/11/30 01:33:53;;;;;;;24.50;17.10;;;5.30;97.90;;;;;;4994536;28;20183;-79
2022/11/30 01:36:28;;;;;;;24.63;15.60;;;5.30;97.90;;;;;;4994355;28;20042;-79
2022/11/30 01:38:56;;;;;;;22.90;15.15;;;5.30;97.90;;;;;;4978102;28;20042;-80
2022/11/30 01:41:28;;;;;;;20.45;15.15;;;5.20;97.90;;;;;;4994492;28;20471;-80
2022/11/30 01:43:56;;;;;;;21.83;15.52;;;5.30;97.90;;;;;;4994389;28;20109;-79
2022/11/30 01:46:52;;;;;;;24.40;15.88;;;5.20;97.80;;;;;;4994168;28;20089;-79
2022/11/30 01:49:20;;;;;;;16.50;12.57;;;5.10;97.70;;;;;;4979980;28;20050;-79
2022/11/30 01:52:11;;;;;;;18.10;13.02;;;5.10;97.70;;;;;;4994279;28;20085;-80
2022/11/30 01:54:56;;;;;;;13.60;11.45;;;5.00;97.60;;;;;;4986792;28;20107;-80
2022/11/30 01:57:33;;;;;;;16.83;12.68;;;4.90;97.60;;;;;;4993494;28;20302;-78
2022/11/30 02:00:01;;;;;;;13.52;10.82;;;4.90;97.50;;;;;;4993897;28;20042;-80
2022/11/30 02:03:02;;;;;;;15.95;10.65;;;4.80;97.50;;;;;;4993935;28;20045;-80
2022/11/30 02:05:28;;;;;;;11.07;8.65;;;4.70;97.40;;;;;;4970075;28;20050;-78
2022/11/30 02:07:55;;;;;;;16.85;10.95;;;4.60;97.30;;;;;;4993946;28;20462;-80
2022/11/30 02:10:27;;;;;;;12.27;9.82;;;4.60;97.40;;;;;;4977260;28;20065;-79
2022/11/30 02:13:25;;;;;;;16.58;12.50;;;4.60;97.40;;;;;;4977437;28;20050;-79
2022/11/30 02:16:24;;;;;;;20.40;13.15;;;4.60;97.50;;;;;;4993612;28;20569;-80
2022/11/30 02:19:16;;;;;;;16.38;12.20;;;4.60;97.50;;;;;;4993545;28;20046;-80
2022/11/30 02:21:58;;;;;;;18.77;14.88;;;4.60;97.60;;;;;;4993774;28;20589;-80
2022/11/30 02:24:49;;;;;;;24.42;16.70;;;4.60;97.70;;;;;;4993297;28;20038;-80
2022/11/30 02:27:40;;;;;;;26.83;16.58;;;4.70;97.80;;;;;;4993374;28;20047;-79
2022/11/30 02:30:10;;;;;;;22.80;16.20;;;4.70;97.80;;;;;;4993630;28;20038;-79
2022/11/30 02:32:45;;;;;;;28.77;17.45;;;4.80;97.80;;;;;;4993215;28;20038;-78
2022/11/30 02:35:13;;;;;;;25.75;18.55;;;4.80;97.80;;;;;;4993450;28;20065;-80
2022/11/30 02:37:39;;;;;;;26.90;17.42;;;4.90;97.90;;;;;;4977405;28;20038;-79
2022/11/30 02:40:13;;;;;;;21.75;15.52;;;4.90;97.80;;;;;;4977219;28;20479;-80
2022/11/30 02:42:38;;;;;;;18.20;14.10;;;4.90;97.70;;;;;;4993007;28;20383;-80
2022/11/30 02:45:06;;;;;;;21.60;15.40;;;4.80;97.60;;;;;;4992872;28;20038;-80
2022/11/30 02:48:01;;;;;;;21.88;16.02;;;4.80;97.80;;;;;;4977233;28;20034;-79
2022/11/30 02:50:53;;;;;;;23.80;14.68;;;4.80;97.70;;;;;;4992955;28;20487;-81
2022/11/30 02:53:19;;;;;;;18.63;13.73;;;4.80;97.60;;;;;;4992590;28;20444;-78
2022/11/30 02:55:45;;;;;;;23.55;15.00;;;4.70;97.60;;;;;;4992796;28;20042;-80
2022/11/30 02:58:13;;;;;;;28.77;16.42;;;4.60;97.60;;;;;;4993110;28;20065;-80
2022/11/30 03:00:39;;;;;;;25.60;16.00;;;4.60;97.50;;;;;;4992749;28;20042;-78
2022/11/30 03:03:04;;;;;;;28.63;17.35;;;4.60;97.50;;;;;;4976519;28;20092;-80
2022/11/30 03:05:30;;;;;;;25.30;17.05;;;4.50;97.60;;;;;;4976746;28;20173;-80
2022/11/30 03:07:55;;;;;;;27.33;17.00;;;4.50;97.50;;;;;;4992705;28;20478;-80
2022/11/30 03:10:21;;;;;;;27.95;19.50;;;4.50;97.60;;;;;;4976284;28;20061;-79
2022/11/30 03:12:47;;;;;;;35.47;21.02;;;4.50;97.60;;;;;;4976458;28;20042;-80
2022/11/30 03:15:12;;;;;;;29.33;18.35;;;4.60;97.70;;;;;;4960291;28;20042;-79
2022/11/30 03:17:38;;;;;;;37.38;22.00;;;4.60;97.70;;;;;;4976459;28;20289;-80
2022/11/30 03:20:04;;;;;;;29.52;19.38;;;4.60;97.70;;;;;;4976381;28;20081;-79
2022/11/30 03:22:30;;;;;;;40.95;23.17;;;4.70;97.80;;;;;;4992787;28;20104;-79
2022/11/30 03:24:56;;;;;;;46.00;25.42;;;4.70;97.70;;;;;;4976080;28;20466;-79
2022/11/30 03:27:21;;;;;;;30.65;19.25;;;4.70;97.80;;;;;;4976580;28;20080;-81
2022/11/30 03:29:47;;;;;;;40.20;23.63;;;4.80;97.80;;;;;;4992651;28;20042;-80
2022/11/30 03:32:13;;;;;;;52.13;25.40;;;4.70;97.80;;;;;;4976277;28;20050;-78
2022/11/30 03:34:38;;;;;;;47.67;25.77;;;4.70;97.70;;;;;;4976170;28;20406;-79
2022/11/30 03:37:04;;;;;;;35.63;21.13;;;4.70;97.70;;;;;;4976250;28;20038;-79
2022/11/30 03:39:30;;;;;;;44.00;23.90;;;4.70;97.70;;;;;;4976022;28;20045;-79
2022/11/30 03:41:55;;;;;;;30.50;19.25;;;4.60;97.70;;;;;;4976487;28;20051;-79
2022/11/30 03:44:21;;;;;;;41.95;22.67;;;4.60;97.70;;;;;;4976121;28;20550;-80
2022/11/30 03:46:47;;;;;;;39.30;21.55;;;4.60;97.70;;;;;;4976061;28;20463;-79
2022/11/30 03:49:13;;;;;;;31.73;20.17;;;4.60;97.70;;;;;;4976012;28;20042;-81
2022/11/30 03:51:39;;;;;;;43.88;22.50;;;4.50;97.60;;;;;;4992435;28;20160;-79
2022/11/30 03:54:04;;;;;;;32.97;20.00;;;4.50;97.60;;;;;;4960062;28;20210;-80
2022/11/30 03:56:30;;;;;;;39.25;22.08;;;4.50;97.60;;;;;;4992148;28;20505;-77
2022/11/30 03:58:56;;;;;;;40.13;22.17;;;4.50;97.70;;;;;;4976105;28;20137;-79
2022/11/30 04:01:22;;;;;;;46.90;25.17;;;4.50;97.70;;;;;;4992152;28;20042;-80
2022/11/30 04:03:50;;;;;;;50.40;24.27;;;4.40;97.70;;;;;;4991901;28;20089;-80
2022/11/30 04:06:16;;;;;;;38.13;21.75;;;4.40;97.70;;;;;;4992087;28;20030;-80
2022/11/30 04:08:43;;;;;;;48.05;24.17;;;4.40;97.70;;;;;;4992335;28;20446;-79
2022/11/30 04:11:09;;;;;;;44.97;23.92;;;4.40;97.70;;;;;;4992018;28;20054;-80
2022/11/30 04:13:36;;;;;;;28.05;17.83;;;4.50;97.70;;;;;;4991924;28;20105;-78
2022/11/30 04:16:03;;;;;;;34.88;20.73;;;4.50;97.70;;;;;;4976045;28;20096;-80
2022/11/30 04:18:30;;;;;;;40.17;21.83;;;4.40;97.70;;;;;;4976122;28;20034;-80
2022/11/30 04:20:57;;;;;;;37.88;20.38;;;4.40;97.70;;;;;;4979750;28;20058;-80
2022/11/30 04:23:24;;;;;;;33.50;20.88;;;4.30;97.60;;;;;;4995675;28;20487;-79
2022/11/30 04:25:51;;;;;;;39.28;21.17;;;4.30;97.70;;;;;;4995925;28;20030;-79
2022/11/30 04:28:17;;;;;;;43.45;21.45;;;4.30;97.60;;;;;;4995640;28;20042;-77
2022/11/30 04:30:45;;;;;;;34.63;20.88;;;4.20;97.60;;;;;;4995804;28;20034;-79
2022/11/30 04:33:11;;;;;;;26.98;17.42;;;4.20;97.50;;;;;;4979618;28;20057;-79
2022/11/30 04:35:52;;;;;;;33.92;18.40;;;4.10;97.50;;;;;;4995719;28;20092;-79
2022/11/30 04:38:17;;;;;;;33.55;18.50;;;4.10;97.60;;;;;;4995373;28;20517;-78
2022/11/30 04:40:44;;;;;;;52.95;18.23;;;4.10;97.50;;;;;;4979127;28;20069;-80
2022/11/30 04:43:10;;;;;;;66.03;17.20;;;4.00;97.30;;;;;;4995158;28;20051;-80
2022/11/30 04:45:36;;;;;;;72.15;14.80;;;3.80;97.30;;;;;;4995289;28;20039;-79
2022/11/30 04:48:03;;;;;;;145.57;17.45;;;3.80;97.20;;;;;;4979092;28;20038;-80
2022/11/30 04:50:29;;;;;;;127.53;16.33;;;3.60;97.10;;;;;;4979131;28;20075;-80
2022/11/30 04:52:55;;;;;;;65.00;11.90;;;3.50;97.10;;;;;;4978948;28;20035;-80
2022/11/30 04:55:20;;;;;;;77.10;12.30;;;3.40;97.20;;;;;;4962968;28;20038;-80
2022/11/30 04:57:47;;;;;;;63.17;12.93;;;3.30;97.20;;;;;;4978893;28;20390;-79
2022/11/30 05:00:15;;;;;;;62.20;13.35;;;3.30;97.30;;;;;;4995028;28;20066;-80
2022/11/30 05:02:41;;;;;;;32.13;11.35;;;3.30;97.40;;;;;;4994947;28;20053;-79
2022/11/30 05:05:07;;;;;;;79.03;16.77;;;3.30;97.50;;;;;;4994687;28;20051;-79
2022/11/30 05:07:32;;;;;;;44.90;13.35;;;3.40;97.50;;;;;;4994873;28;20126;-78
2022/11/30 05:09:58;;;;;;;36.25;15.05;;;3.40;97.50;;;;;;4962414;28;20138;-79
2022/11/30 05:12:24;;;;;;;50.67;16.88;;;3.50;97.60;;;;;;4978709;28;20046;-80
2022/11/30 05:14:49;;;;;;;37.20;16.98;;;3.60;97.70;;;;;;4994618;28;20134;-80
2022/11/30 05:17:15;;;;;;;29.38;16.00;;;3.60;97.70;;;;;;4978554;28;20407;-79
2022/11/30 05:19:41;;;;;;;20.20;13.20;;;3.70;97.70;;;;;;4962668;28;20046;-80
2022/11/30 05:22:06;;;;;;;25.13;15.70;;;3.70;97.80;;;;;;4979117;28;20073;-79
2022/11/30 05:24:32;;;;;;;28.90;16.10;;;3.80;97.80;;;;;;4974978;28;20046;-78
2022/11/30 05:26:59;;;;;;;29.33;16.00;;;3.80;97.70;;;;;;4959007;28;20070;-80
2022/11/30 05:29:24;;;;;;;23.13;14.82;;;3.80;97.70;;;;;;4959012;28;20065;-82
2022/11/30 05:31:50;;;;;;;23.65;14.95;;;3.80;97.70;;;;;;4975049;28;20202;-81
2022/11/30 05:34:16;;;;;;;22.52;14.90;;;3.80;97.70;;;;;;4959050;28;20491;-81
2022/11/30 05:36:42;;;;;;;27.42;16.08;;;3.80;97.70;;;;;;4942932;28;20479;-81
2022/11/30 05:39:07;;;;;;;22.15;13.13;;;3.80;97.60;;;;;;4974860;28;20043;-80
2022/11/30 05:41:33;;;;;;;25.27;14.77;;;3.70;97.60;;;;;;4958631;28;20078;-83
2022/11/30 05:43:59;;;;;;;38.28;17.33;;;3.70;97.70;;;;;;4986952;28;20046;-82
2022/11/30 05:46:24;;;;;;;44.80;16.83;;;3.70;97.60;;;;;;4980812;28;20030;-82
2022/11/30 05:48:50;;;;;;;46.05;18.52;;;3.70;97.70;;;;;;5004069;28;20030;-83
2022/11/30 05:51:18;;;;;;;31.30;15.48;;;3.70;97.70;;;;;;4970187;28;20038;-81
2022/11/30 05:53:45;;;;;;;24.25;13.88;;;3.70;97.60;;;;;;5003718;28;20049;-82
2022/11/30 05:56:13;;;;;;;25.08;15.02;;;3.70;97.70;;;;;;4983796;28;20129;-82
2022/11/30 05:58:39;;;;;;;20.35;13.90;;;3.70;97.70;;;;;;5004195;28;20406;-81
2022/11/30 06:01:06;;;;;;;21.65;14.60;;;3.70;97.70;;;;;;5002529;28;20095;-82
2022/11/30 06:03:34;;;;;;;22.85;15.15;;;3.70;97.70;;;;;;5002873;28;20041;-83
2022/11/30 06:06:00;;;;;;;18.83;13.43;;;3.70;97.70;;;;;;5004016;28;20034;-82
2022/11/30 06:08:26;;;;;;;17.48;12.38;;;3.70;97.80;;;;;;5002081;28;20049;-82
2022/11/30 06:10:53;;;;;;;19.50;13.98;;;3.80;97.70;;;;;;5004104;28;20120;-82
2022/11/30 06:13:19;;;;;;;20.13;14.00;;;3.70;97.70;;;;;;5001593;28;20052;-81
2022/11/30 06:15:45;;;;;;;18.58;13.82;;;3.80;97.80;;;;;;5003522;28;20042;-82
2022/11/30 06:18:12;;;;;;;20.95;14.70;;;3.70;97.70;;;;;;4985485;28;20052;-81
2022/11/30 06:20:38;;;;;;;24.75;15.07;;;3.70;97.70;;;;;;4995802;28;20142;-83
2022/11/30 06:23:04;;;;;;;40.85;16.70;;;3.80;97.80;;;;;;4977259;28;20053;-82
2022/11/30 06:25:30;;;;;;;33.20;15.95;;;3.70;97.80;;;;;;4993311;28;20042;-83
2022/11/30 06:27:56;;;;;;;60.45;19.42;;;3.80;97.80;;;;;;4989485;28;20039;-83
2022/11/30 06:30:22;;;;;;;132.07;24.88;;;3.80;97.80;;;;;;4974334;28;20066;-82
2022/11/30 06:32:49;;;;;;;55.28;19.58;;;3.80;97.80;;;;;;4957766;28;20510;-83
2022/11/30 06:35:15;;;;;;;34.78;18.50;;;3.80;97.80;;;;;;4973778;28;20102;-83
2022/11/30 06:37:41;;;;;;;48.58;21.15;;;3.80;97.90;;;;;;4957697;28;20042;-82
2022/11/30 06:40:08;;;;;;;73.60;24.45;;;3.80;97.90;;;;;;4957797;28;20043;-83
2022/11/30 06:42:34;;;;;;;49.42;21.92;;;3.80;97.90;;;;;;4973232;28;20053;-83
2022/11/30 06:45:01;;;;;;;38.33;19.92;;;3.80;97.80;;;;;;4957434;28;20101;-83
2022/11/30 06:47:27;;;;;;;32.55;18.40;;;3.80;97.90;;;;;;4973837;28;20035;-83
2022/11/30 06:49:52;;;;;;;33.90;19.02;;;3.80;97.90;;;;;;4973605;28;20180;-83
2022/11/30 06:52:18;;;;;;;31.00;19.33;;;3.80;97.80;;;;;;4957738;28;20133;-83
2022/11/30 06:54:44;;;;;;;35.33;20.17;;;3.80;97.80;;;;;;4983946;28;20053;-87
2022/11/30 06:57:10;;;;;;;32.33;18.77;;;3.80;97.80;;;;;;4971989;28;20058;-86
2022/11/30 06:59:36;;;;;;;48.80;21.42;;;3.80;97.70;;;;;;4971015;28;20050;-85
2022/11/30 07:02:02;;;;;;;72.70;20.38;;;3.80;97.80;;;;;;4969690;28;20402;-84
2022/11/30 07:04:28;;;;;;;90.03;21.98;;;3.70;97.70;;;;;;4961045;28;20482;-85
2022/11/30 07:06:54;;;;;;;92.38;21.83;;;3.70;97.70;;;;;;4984935;28;20042;-86
2022/11/30 07:09:20;;;;;;;88.43;23.13;;;3.60;97.70;;;;;;4970680;28;20487;-85
2022/11/30 07:11:45;;;;;;;80.45;20.48;;;3.60;97.60;;;;;;5002876;28;20117;-84
2022/11/30 07:14:11;;;;;;;108.72;22.83;;;3.50;97.60;;;;;;4953384;28;20081;-85
2022/11/30 07:16:37;;;;;;;92.25;20.92;;;3.50;97.50;;;;;;4970327;28;20096;-86
2022/11/30 07:19:02;;;;;;;51.25;16.92;;;3.50;97.60;;;;;;4953482;28;21111;-86
2022/11/30 07:21:28;;;;;;;37.85;16.20;;;3.40;97.60;;;;;;4962613;28;20042;-84
2022/11/30 07:26:38;;;;;;;39.60;14.75;;;3.40;97.60;;;;;;4985878;28;20050;-84
2022/11/30 07:29:04;;;;;;;63.78;17.90;;;3.40;97.70;;;;;;4968864;28;20054;-85
2022/11/30 07:31:34;;;;;;;29.08;13.98;;;3.50;97.80;;;;;;4969577;28;20580;-84
2022/11/30 07:34:06;;;;;;;27.15;15.10;;;3.50;97.80;;;;;;4978457;28;20047;-84
2022/11/30 07:36:32;;;;;;;39.80;17.35;;;3.50;97.80;;;;;;4979865;28;20050;-84
2022/11/30 07:38:58;;;;;;;21.20;13.45;;;3.60;97.90;;;;;;4953404;28;20212;-84
2022/11/30 07:41:24;;;;;;;31.58;17.73;;;3.60;97.80;;;;;;4978562;28;20542;-83
2022/11/30 07:43:50;;;;;;;28.25;18.17;;;3.60;97.90;;;;;;4969402;28;20043;-84
2022/11/30 07:46:16;;;;;;;30.50;18.52;;;3.60;97.90;;;;;;4954684;28;20045;-84
2022/11/30 07:48:43;;;;;;;28.85;17.48;;;3.60;97.90;;;;;;4970136;28;20569;-82
2022/11/30 07:51:18;;;;;;;27.50;18.08;;;3.60;97.90;;;;;;4995801;28;20065;-84
2022/11/30 07:53:44;;;;;;;25.48;15.98;;;3.60;97.90;;;;;;4981737;28;20081;-83
2022/11/30 07:56:19;;;;;;;28.60;18.83;;;3.60;97.90;;;;;;5000583;28;20158;-82
2022/11/30 07:58:46;;;;;;;32.47;20.25;;;3.70;97.90;;;;;;4988262;28;20038;-85
2022/11/30 08:01:24;;;;;;;39.97;22.40;;;3.70;98.00;;;;;;4985696;28;20050;-84
2022/11/30 08:03:50;;;;;;;39.72;24.80;;;3.70;97.90;;;;;;4983845;28;20046;-83
2022/11/30 08:06:19;;;;;;;46.70;25.20;;;3.80;98.00;;;;;;4998931;28;20121;-84
2022/11/30 08:08:45;;;;;;;36.58;22.77;;;3.80;98.00;;;;;;4982825;28;20085;-85
2022/11/30 08:11:14;;;;;;;43.28;26.35;;;3.90;98.10;;;;;;4986541;28;20062;-83
2022/11/30 08:13:40;;;;;;;46.03;26.45;;;3.90;98.10;;;;;;4989082;28;20047;-84
2022/11/30 08:16:08;;;;;;;51.42;28.40;;;4.00;98.10;;;;;;4973793;28;20050;-84
2022/11/30 08:18:34;;;;;;;48.47;27.02;;;4.10;98.20;;;;;;4987690;28;20062;-84
2022/11/30 08:21:02;;;;;;;40.90;24.05;;;4.10;98.20;;;;;;4984504;28;20093;-85
2022/11/30 08:23:32;;;;;;;44.38;25.13;;;4.10;98.20;;;;;;4972518;28;20097;-84
2022/11/30 08:26:06;;;;;;;53.97;28.63;;;4.20;98.20;;;;;;4973824;28;20397;-83
2022/11/30 08:28:34;;;;;;;45.92;27.27;;;4.20;98.20;;;;;;4983316;28;20046;-83
2022/11/30 08:31:02;;;;;;;44.78;25.38;;;4.30;98.30;;;;;;4982150;28;20101;-83
2022/11/30 08:33:30;;;;;;;46.72;25.42;;;4.40;98.20;;;;;;4982094;28;20390;-84
2022/11/30 08:36:09;;;;;;;41.90;25.30;;;4.40;98.20;;;;;;4972445;28;20038;-84
2022/11/30 08:38:36;;;;;;;40.80;22.80;;;4.50;98.20;;;;;;4984393;28;20835;-83
2022/11/30 08:41:02;;;;;;;40.10;24.92;;;4.50;98.20;;;;;;4987144;28;20042;-84
2022/11/30 08:43:28;;;;;;;36.47;20.63;;;4.60;98.30;;;;;;4971026;28;20050;-82
2022/11/30 08:45:54;;;;;;;38.78;24.10;;;4.60;98.30;;;;;;4973042;28;20050;-84
2022/11/30 08:48:20;;;;;;;53.88;26.77;;;4.60;98.30;;;;;;4993404;28;20070;-84
2022/11/30 08:50:45;;;;;;;52.20;27.13;;;4.70;98.30;;;;;;4973032;28;20042;-84
2022/11/30 08:53:11;;;;;;;48.03;26.25;;;4.80;98.30;;;;;;4972053;28;20050;-84
2022/11/30 08:55:37;;;;;;;50.65;27.38;;;4.80;98.30;;;;;;4973483;28;20065;-85
2022/11/30 08:58:03;;;;;;;54.15;27.95;;;4.90;98.30;;;;;;4980312;28;20048;-85
2022/11/30 09:00:28;;;;;;;51.25;29.35;;;4.90;98.40;;;;;;4973032;28;20056;-85
2022/11/30 09:02:55;;;;;;;58.08;29.38;;;5.00;98.40;;;;;;4971101;28;20394;-85
2022/11/30 09:05:21;;;;;;;57.80;29.70;;;5.00;98.40;;;;;;4994900;28;20042;-85
2022/11/30 09:07:46;;;;;;;53.88;29.20;;;5.10;98.40;;;;;;4979663;28;20042;-84
2022/11/30 09:10:12;;;;;;;53.95;30.63;;;5.10;98.40;;;;;;4954725;28;20152;-84
2022/11/30 09:12:39;;;;;;;52.55;30.10;;;5.10;98.40;;;;;;5000065;28;20050;-83
2022/11/30 09:15:07;;;;;;;62.65;33.83;;;5.20;98.40;;;;;;4982841;28;20054;-86
2022/11/30 09:17:33;;;;;;;65.97;34.33;;;5.20;98.40;;;;;;4971819;28;20046;-85
2022/11/30 09:19:59;;;;;;;73.18;34.78;;;5.30;98.40;;;;;;4984748;28;20415;-84
2022/11/30 09:22:25;;;;;;;54.70;29.67;;;5.30;98.40;;;;;;4970567;28;20042;-83
2022/11/30 09:24:51;;;;;;;59.63;32.78;;;5.40;98.30;;;;;;4970905;28;20050;-84
2022/11/30 09:27:17;;;;;;;51.13;27.88;;;5.50;98.40;;;;;;4972185;28;20045;-84
2022/11/30 09:29:42;;;;;;;57.78;32.10;;;5.50;98.30;;;;;;4988705;28;20818;-84
2022/11/30 09:32:08;;;;;;;53.90;31.65;;;5.50;98.30;;;;;;4978386;28;20050;-83
2022/11/30 09:34:34;;;;;;;59.03;34.08;;;5.50;98.30;;;;;;4954750;28;20042;-84
2022/11/30 09:36:59;;;;;;;68.90;37.30;;;5.60;98.40;;;;;;4983002;28;20495;-85
2022/11/30 09:39:25;;;;;;;63.25;35.30;;;5.60;98.30;;;;;;4971640;28;20144;-84
2022/11/30 09:41:57;;;;;;;70.75;36.63;;;5.60;98.30;;;;;;4984078;28;20042;-84
2022/11/30 09:44:57;;;;;;;67.20;36.03;;;5.70;98.30;;;;;;4980279;28;20050;-82
2022/11/30 09:47:44;;;;;;;48.70;28.48;;;5.80;98.30;;;;;;4984360;28;20046;-83
2022/11/30 09:50:14;;;;;;;89.25;51.50;;;5.80;98.40;;;;;;4986400;28;20088;-82
2022/11/30 09:52:45;;;;;;;74.70;45.35;;;5.80;98.40;;;;;;4983042;28;20074;-85
2022/11/30 09:55:21;;;;;;;53.13;33.35;;;5.90;98.40;;;;;;4982450;28;20125;-84
2022/11/30 09:57:59;;;;;;;64.63;37.60;;;6.00;98.40;;;;;;4986765;28;20043;-82
2022/11/30 10:00:25;;;;;;;65.10;34.92;;;6.00;98.40;;;;;;4983387;28;20121;-83
2022/11/30 10:02:54;;;;;;;69.32;38.00;;;6.10;98.40;;;;;;4981412;28;20121;-84
2022/11/30 10:05:43;;;;;;;78.20;40.80;;;6.10;98.40;;;;;;4971513;28;20051;-84
2022/11/30 10:08:11;;;;;;;66.15;37.08;;;6.20;98.40;;;;;;4979142;28;20047;-84
2022/11/30 10:10:58;;;;;;;58.45;35.13;;;6.20;98.40;;;;;;4978503;28;20414;-84
2022/11/30 10:13:45;;;;;;;74.70;37.22;;;6.30;98.40;;;;;;4967544;28;20057;-82
2022/11/30 10:16:22;;;;;;;64.35;35.00;;;6.30;98.30;;;;;;4957652;28;20050;-84
2022/11/30 10:19:08;;;;;;;54.58;30.45;;;6.40;98.10;;;;;;4974174;28;20045;-84
2022/11/30 10:21:44;;;;;;;58.63;31.30;;;6.40;98.10;;;;;;4954251;28;20089;-84
2022/11/30 10:24:22;;;;;;;72.03;38.13;;;6.40;98.00;;;;;;4974013;28;20039;-83
2022/11/30 10:26:56;;;;;;;65.03;33.55;;;6.50;98.10;;;;;;4974237;28;20046;-83
2022/11/30 10:29:34;;;;;;;67.47;38.22;;;6.50;98.10;;;;;;4974032;28;20098;-84
2022/11/30 10:32:20;;;;;;;67.45;37.35;;;6.50;98.10;;;;;;4973995;28;20049;-84
2022/11/30 10:34:51;;;;;;;62.35;35.50;;;6.50;98.20;;;;;;4973850;28;20039;-84
2022/11/30 10:37:34;;;;;;;57.08;33.10;;;6.60;98.20;;;;;;4974172;28;20038;-82
2022/11/30 10:40:25;;;;;;;59.42;32.58;;;6.60;98.10;;;;;;4973826;28;20043;-82
2022/11/30 10:43:17;;;;;;;63.05;33.67;;;6.60;98.20;;;;;;4954844;28;20089;-81
2022/11/30 10:45:49;;;;;;;57.05;31.73;;;6.60;98.10;;;;;;4973749;28;20047;-82
2022/11/30 10:48:14;;;;;;;63.70;34.85;;;6.60;98.10;;;;;;4957768;28;20105;-82
2022/11/30 10:50:40;;;;;;;53.10;31.20;;;6.60;98.10;;;;;;4957601;28;20483;-82
2022/11/30 10:53:10;;;;;;;67.25;35.05;;;6.60;98.10;;;;;;4957769;28;20050;-81
2022/11/30 10:55:41;;;;;;;57.58;33.08;;;6.60;98.10;;;;;;4973710;28;20461;-82
2022/11/30 10:58:17;;;;;;;67.13;34.53;;;6.60;98.10;;;;;;4973532;28;20031;-81
2022/11/30 11:01:02;;;;;;;52.38;30.17;;;6.60;98.10;;;;;;4973472;28;20105;-83
2022/11/30 11:03:27;;;;;;;57.50;30.98;;;6.60;98.00;;;;;;4973321;28;20129;-82
2022/11/30 11:06:22;;;;;;;59.97;32.70;;;6.60;98.00;;;;;;4957555;28;20146;-83
2022/11/30 11:08:49;;;;;;;63.50;35.38;;;6.60;98.00;;;;;;4973333;28;20046;-81
2022/11/30 11:11:37;;;;;;;60.25;33.05;;;6.60;98.00;;;;;;4973679;28;20055;-82
2022/11/30 11:14:20;;;;;;;54.75;30.98;;;6.60;98.00;;;;;;4957354;28;20038;-82
2022/11/30 11:16:57;;;;;;;52.53;29.60;;;6.70;98.00;;;;;;4973227;28;20047;-81
2022/11/30 11:19:32;;;;;;;58.45;31.27;;;6.70;98.00;;;;;;4973416;28;20391;-81
2022/11/30 11:21:59;;;;;;;53.92;30.73;;;6.70;98.00;;;;;;4992525;28;20050;-81
2022/11/30 11:24:26;;;;;;;56.30;31.95;;;6.70;98.10;;;;;;4976600;28;20042;-82
2022/11/30 11:26:55;;;;;;;52.58;28.65;;;6.70;98.00;;;;;;4992465;28;20093;-81
2022/11/30 11:29:30;;;;;;;52.35;28.52;;;6.80;98.00;;;;;;4992600;28;20030;-81
2022/11/30 11:32:17;;;;;;;61.15;33.95;;;6.80;98.00;;;;;;4992420;28;20038;-81
2022/11/30 11:34:43;;;;;;;49.20;28.58;;;6.80;98.00;;;;;;4992584;28;20295;-81
2022/11/30 11:37:25;;;;;;;48.67;28.90;;;6.80;98.00;;;;;;4976481;28;20485;-81
2022/11/30 11:39:59;;;;;;;49.17;30.15;;;6.90;98.00;;;;;;4992377;28;20129;-81
2022/11/30 11:42:28;;;;;;;56.05;32.03;;;6.90;98.00;;;;;;4992374;28;20038;-82
2022/11/30 11:44:59;;;;;;;56.00;30.30;;;7.00;98.00;;;;;;4992171;28;20074;-81
2022/11/30 11:47:38;;;;;;;51.60;28.95;;;6.90;98.00;;;;;;4992299;28;20042;-81
2022/11/30 11:50:23;;;;;;;54.45;30.58;;;7.00;97.90;;;;;;4992605;28;20441;-83
2022/11/30 11:52:49;;;;;;;50.58;31.77;;;6.90;97.90;;;;;;4992308;28;20038;-81
2022/11/30 11:55:17;;;;;;;50.58;30.55;;;7.00;97.90;;;;;;4991489;28;20509;-80
2022/11/30 11:57:52;;;;;;;52.40;29.00;;;7.00;97.90;;;;;;4976037;28;20483;-82
2022/11/30 12:00:20;;;;;;;41.85;25.02;;;7.00;97.90;;;;;;4976051;28;20561;-81
2022/11/30 12:03:37;;;;;;;47.63;28.55;;;7.00;97.80;;;;;;4992223;28;20118;-81
2022/11/30 12:06:10;;;;;;;47.97;28.67;;;7.00;97.80;;;;;;4964893;28;20054;-81
2022/11/30 12:09:12;;;;;;;50.03;29.52;;;7.00;97.80;;;;;;4992146;28;20046;-82
2022/11/30 12:11:44;;;;;;;48.40;26.95;;;7.00;97.80;;;;;;4991977;28;20070;-81
2022/11/30 12:14:18;;;;;;;53.17;30.02;;;7.10;97.80;;;;;;5003210;28;20082;-82
2022/11/30 12:16:43;;;;;;;;;;;7.10;97.80;;;;;;4984718;28;20042;-82
2022/11/30 12:19:19;;;;;;;50.00;30.40;;;7.10;97.80;;;;;;4984235;28;19965;-81
2022/11/30 12:21:56;;;;;;;44.70;27.15;;;7.20;97.80;;;;;;5000291;28;20054;-81
2022/11/30 12:25:00;;;;;;;47.72;26.30;;;7.20;97.80;;;;;;4976755;28;20258;-82
2022/11/30 12:27:46;;;;;;;41.08;26.15;;;7.30;97.80;;;;;;4982071;28;20125;-81
2022/11/30 12:30:32;;;;;;;46.20;29.15;;;7.40;97.70;;;;;;4977591;28;20073;-83
2022/11/30 12:33:13;;;;;;;46.83;28.25;;;7.30;97.70;;;;;;4979664;28;20050;-82
2022/11/30 12:36:03;;;;;;;44.85;28.75;;;7.40;97.70;;;;;;4985092;28;20046;-82
2022/11/30 12:38:49;;;;;;;47.67;28.33;;;7.50;97.60;;;;;;4983494;28;20717;-82
2022/11/30 12:41:35;;;;;;;46.95;29.70;;;7.40;97.60;;;;;;4962959;28;20082;-83
2022/11/30 12:44:30;;;;;;;49.42;29.08;;;7.40;97.50;;;;;;4978661;28;20050;-82
2022/11/30 12:47:35;;;;;;;47.28;29.52;;;7.40;97.50;;;;;;4986696;28;20050;-82
2022/11/30 12:50:07;;;;;;;46.72;27.40;;;7.40;97.50;;;;;;4983659;28;20085;-82
2022/11/30 12:52:57;;;;;;;48.35;29.52;;;7.40;97.50;;;;;;4989288;28;20061;-81
2022/11/30 12:55:31;;;;;;;46.53;27.42;;;7.40;97.40;;;;;;4978284;28;20058;-82
2022/11/30 12:58:16;;;;;;;45.00;28.23;;;7.40;97.40;;;;;;4983685;28;20055;-80